Time;durP1;ratioP1;P1;durP2;ratioP2;P2;SDS_P1;SDS_P2;PMS_P1;PMS_P2;Temp;Humidity;BMP_temperature;BMP_pressure;BME280_temperature;BME280_humidity;BME280_pressure;Samples;Min_cycle;Max_cycle;Signal;HPM_P1;HPM_P2
2023/01/16 00:01:17;;;;;;;4.25;0.93;;;5.80;99.90;;;;;;5034930;28;20319;-78
2023/01/16 00:03:43;;;;;;;3.03;1.08;;;5.70;99.90;;;;;;5021002;28;20387;-79
2023/01/16 00:06:10;;;;;;;6.38;0.95;;;5.80;99.90;;;;;;5042490;28;20051;-79
2023/01/16 00:08:36;;;;;;;4.38;0.60;;;5.80;99.90;;;;;;5040513;28;20044;-78
2023/01/16 00:11:02;;;;;;;2.28;0.50;;;5.70;99.90;;;;;;5040349;28;20041;-78
2023/01/16 00:13:29;;;;;;;1.50;0.50;;;5.70;99.90;;;;;;5023932;28;20025;-78
2023/01/16 00:15:55;;;;;;;2.28;0.93;;;5.80;99.90;;;;;;5046321;28;20033;-78
2023/01/16 00:18:21;;;;;;;1.88;0.50;;;5.80;99.90;;;;;;5045927;28;20519;-78
2023/01/16 00:20:50;;;;;;;2.72;0.75;;;5.80;99.90;;;;;;5047825;28;20053;-78
2023/01/16 00:23:17;;;;;;;5.00;1.02;;;5.80;99.90;;;;;;5021948;28;20136;-78
2023/01/16 00:25:43;;;;;;;5.00;1.38;;;5.80;99.90;;;;;;5045152;28;20028;-76
2023/01/16 00:28:11;;;;;;;3.35;1.17;;;5.70;99.90;;;;;;5046246;28;20029;-77
2023/01/16 00:30:38;;;;;;;2.42;0.60;;;5.70;99.90;;;;;;5029823;28;20028;-77
2023/01/16 00:33:05;;;;;;;2.38;0.80;;;5.70;99.90;;;;;;5024655;28;20041;-77
2023/01/16 00:35:32;;;;;;;2.65;1.20;;;5.70;99.90;;;;;;5028974;28;20040;-77
2023/01/16 00:37:59;;;;;;;3.00;1.10;;;5.60;99.90;;;;;;5015717;28;20533;-76
2023/01/16 00:40:25;;;;;;;1.85;1.23;;;5.60;99.90;;;;;;5045781;28;20047;-76
2023/01/16 00:42:51;;;;;;;2.45;1.13;;;5.60;99.90;;;;;;5036115;28;20037;-76
2023/01/16 00:45:18;;;;;;;2.47;1.45;;;5.60;99.90;;;;;;5045333;28;20024;-76
2023/01/16 00:47:45;;;;;;;3.60;2.95;;;5.60;99.90;;;;;;5045088;28;20037;-76
2023/01/16 00:50:11;;;;;;;5.22;2.20;;;5.60;99.90;;;;;;5047382;28;20044;-76
2023/01/16 00:52:37;;;;;;;4.90;3.60;;;5.50;99.90;;;;;;5037216;28;20315;-76
2023/01/16 00:55:04;;;;;;;4.63;3.63;;;5.50;99.90;;;;;;5029707;28;20021;-76
2023/01/16 00:57:30;;;;;;;5.95;3.47;;;5.50;99.90;;;;;;5040056;28;20052;-76
2023/01/16 00:59:56;;;;;;;10.35;6.20;;;5.50;99.90;;;;;;5027979;28;20056;-76
2023/01/16 01:02:23;;;;;;;8.02;6.30;;;5.50;99.90;;;;;;5036412;28;20033;-76
2023/01/16 01:04:49;;;;;;;7.07;5.95;;;5.50;99.90;;;;;;5048546;28;20039;-76
2023/01/16 01:07:15;;;;;;;6.70;6.00;;;5.50;99.90;;;;;;5042635;28;20033;-76
2023/01/16 01:09:42;;;;;;;7.78;6.75;;;5.50;99.90;;;;;;5045229;28;20028;-76
2023/01/16 01:12:08;;;;;;;6.88;5.95;;;5.50;99.90;;;;;;5020649;28;20033;-76
2023/01/16 01:14:34;;;;;;;9.70;8.70;;;5.50;99.90;;;;;;5043188;28;20052;-76
2023/01/16 01:17:00;;;;;;;7.47;6.68;;;5.50;99.90;;;;;;5027937;28;20028;-76
2023/01/16 01:19:27;;;;;;;10.18;8.13;;;5.50;99.90;;;;;;5043996;28;20443;-76
2023/01/16 01:21:53;;;;;;;10.18;8.65;;;5.50;99.90;;;;;;5020780;28;21294;-76
2023/01/16 01:24:19;;;;;;;9.43;8.32;;;5.50;99.90;;;;;;5046188;28;20033;-76
2023/01/16 01:26:46;;;;;;;10.85;8.25;;;5.50;99.90;;;;;;5043331;28;20044;-76
2023/01/16 01:29:12;;;;;;;8.65;7.85;;;5.40;99.90;;;;;;5027271;28;20055;-76
2023/01/16 01:31:39;;;;;;;9.90;8.43;;;5.40;99.90;;;;;;5023252;28;20041;-75
2023/01/16 01:34:05;;;;;;;11.32;10.25;;;5.40;99.90;;;;;;5010032;28;20037;-76
2023/01/16 01:36:31;;;;;;;8.20;7.50;;;5.40;99.90;;;;;;5038830;28;20032;-76
2023/01/16 01:38:57;;;;;;;8.30;7.60;;;5.40;99.90;;;;;;5042634;28;20376;-76
2023/01/16 01:41:24;;;;;;;7.00;6.30;;;5.40;99.90;;;;;;5038373;28;20037;-76
2023/01/16 01:43:52;;;;;;;6.57;5.88;;;5.40;99.90;;;;;;5021914;28;20029;-76
2023/01/16 01:46:25;;;;;;;5.53;4.72;;;5.40;99.90;;;;;;5040930;28;20025;-75
2023/01/16 01:48:58;;;;;;;7.57;5.00;;;5.40;99.90;;;;;;5041814;28;20036;-76
2023/01/16 01:51:32;;;;;;;7.00;6.10;;;5.40;99.90;;;;;;5023112;28;20041;-75
2023/01/16 01:54:05;;;;;;;4.80;4.25;;;5.40;99.90;;;;;;5036311;28;20028;-76
2023/01/16 01:56:35;;;;;;;4.45;3.80;;;5.40;99.90;;;;;;5037062;28;20033;-75
2023/01/16 01:59:07;;;;;;;4.85;4.30;;;5.40;99.90;;;;;;5026730;28;20040;-76
2023/01/16 02:01:34;;;;;;;5.33;4.73;;;5.40;99.90;;;;;;5034221;28;20477;-75
2023/01/16 02:04:03;;;;;;;7.70;5.03;;;5.40;99.90;;;;;;5023823;28;20283;-75
2023/01/16 02:06:46;;;;;;;7.72;4.82;;;5.40;99.90;;;;;;5036713;28;20043;-75
2023/01/16 02:09:13;;;;;;;;;;;5.40;99.90;;;;;;5036231;28;20030;-75
2023/01/16 02:11:48;;;;;;;5.82;3.55;;;5.40;99.90;;;;;;5020055;28;19924;-75
2023/01/16 02:14:16;;;;;;;6.82;3.33;;;5.40;99.90;;;;;;5019230;28;20047;-75
2023/01/16 02:20:10;;;;;;;7.85;2.72;;;5.40;99.90;;;;;;5042705;28;20032;-76
2023/01/16 02:23:07;;;;;;;8.52;2.35;;;5.30;99.90;;;;;;5037093;28;20056;-75
2023/01/16 02:25:59;;;;;;;7.45;2.25;;;5.30;99.90;;;;;;5035562;28;20033;-76
2023/01/16 02:28:58;;;;;;;5.40;1.50;;;5.30;99.90;;;;;;5029434;28;20037;-75
2023/01/16 02:31:54;;;;;;;4.20;1.33;;;5.30;99.90;;;;;;5037933;28;20049;-76
2023/01/16 02:34:48;;;;;;;7.05;1.38;;;5.30;99.90;;;;;;5043791;28;20624;-76
2023/01/16 02:37:27;;;;;;;8.48;1.98;;;5.30;99.90;;;;;;5010165;28;20073;-75
2023/01/16 02:40:04;;;;;;;5.55;1.50;;;5.30;99.90;;;;;;5032812;28;20033;-76
2023/01/16 02:42:58;;;;;;;5.43;1.23;;;5.20;99.90;;;;;;5036351;28;20029;-76
2023/01/16 02:45:51;;;;;;;5.38;0.90;;;5.20;99.90;;;;;;5045113;28;20025;-76
2023/01/16 02:48:46;;;;;;;4.57;0.90;;;5.20;99.90;;;;;;5029519;28;20445;-76
2023/01/16 02:51:28;;;;;;;4.05;0.90;;;5.20;99.90;;;;;;5042620;28;20511;-76
2023/01/16 02:54:39;;;;;;;3.75;0.85;;;5.20;99.90;;;;;;5039123;28;20029;-76
2023/01/16 02:57:36;;;;;;;6.40;1.00;;;5.10;99.90;;;;;;5009800;28;20044;-76
2023/01/16 03:00:05;;;;;;;6.07;0.75;;;5.00;99.90;;;;;;5027668;28;20049;-77
2023/01/16 03:02:32;;;;;;;3.35;0.73;;;4.90;99.90;;;;;;5020417;28;20036;-76
2023/01/16 03:04:58;;;;;;;4.78;0.88;;;4.90;99.90;;;;;;5044444;28;20036;-76
2023/01/16 03:08:03;;;;;;;6.00;0.80;;;4.80;99.90;;;;;;5027582;28;20037;-76
2023/01/16 03:10:41;;;;;;;6.97;0.77;;;4.70;99.90;;;;;;5019639;28;20068;-77
2023/01/16 03:13:45;;;;;;;2.13;0.55;;;4.60;99.90;;;;;;4981792;28;20105;-76
2023/01/16 03:16:27;;;;;;;;;;;4.60;99.90;;;;;;5003509;28;20041;-76
2023/01/16 03:19:00;;;;;;;5.23;0.80;;;4.50;99.90;;;;;;5043585;28;19992;-76
2023/01/16 03:21:35;;;;;;;4.78;0.93;;;4.40;99.90;;;;;;5042226;28;20033;-76
2023/01/16 03:24:23;;;;;;;2.17;0.43;;;4.30;99.90;;;;;;5040680;28;20041;-76
2023/01/16 03:26:58;;;;;;;3.85;0.70;;;4.30;99.90;;;;;;5027214;28;20496;-76
2023/01/16 03:29:32;;;;;;;2.83;0.70;;;4.20;99.90;;;;;;5043627;28;20037;-77
2023/01/16 03:32:05;;;;;;;2.90;0.40;;;4.20;99.90;;;;;;5037002;28;20044;-76
2023/01/16 03:34:34;;;;;;;;;;;4.10;99.90;;;;;;5026327;28;20029;-76
2023/01/16 03:37:16;;;;;;;4.68;0.65;;;4.10;99.90;;;;;;5024686;28;20300;-76
2023/01/16 03:39:46;;;;;;;6.07;0.60;;;4.10;99.90;;;;;;5011033;28;20515;-76
2023/01/16 03:42:19;;;;;;;7.95;0.88;;;4.00;99.90;;;;;;5004312;28;20045;-76
2023/01/16 03:44:54;;;;;;;4.50;0.88;;;3.90;99.90;;;;;;5009719;28;20033;-77
2023/01/16 03:47:26;;;;;;;6.18;0.70;;;3.90;99.90;;;;;;5045537;28;20041;-77
2023/01/16 03:49:59;;;;;;;2.10;0.60;;;3.90;99.90;;;;;;5047067;28;20044;-76
2023/01/16 03:52:40;;;;;;;5.47;1.27;;;3.80;99.90;;;;;;5039931;28;20040;-76
2023/01/16 03:55:21;;;;;;;3.83;0.52;;;3.80;99.90;;;;;;5051224;28;20025;-76
2023/01/16 03:57:55;;;;;;;2.03;0.88;;;3.80;99.90;;;;;;5029264;28;20052;-76
2023/01/16 04:00:23;;;;;;;3.55;0.43;;;3.70;99.90;;;;;;5051356;28;20037;-76
2023/01/16 04:02:59;;;;;;;3.85;0.50;;;3.70;99.90;;;;;;5040878;28;20037;-76
2023/01/16 04:05:44;;;;;;;2.17;0.50;;;3.80;99.90;;;;;;5047868;28;20025;-76
2023/01/16 04:08:26;;;;;;;5.43;0.70;;;3.80;99.90;;;;;;5030762;28;20035;-76
2023/01/16 04:10:53;;;;;;;4.90;0.83;;;3.80;99.90;;;;;;5046817;28;20476;-75
2023/01/16 04:13:32;;;;;;;4.53;0.80;;;3.80;99.90;;;;;;5041692;28;20275;-76
2023/01/16 04:16:01;;;;;;;5.25;0.95;;;3.80;99.90;;;;;;5047138;28;20025;-75
2023/01/16 04:18:33;;;;;;;4.68;0.90;;;3.80;99.90;;;;;;5047309;28;20029;-76
2023/01/16 04:21:00;;;;;;;3.15;0.80;;;3.80;99.90;;;;;;5046774;28;20492;-75
2023/01/16 04:23:26;;;;;;;5.82;0.88;;;3.80;99.90;;;;;;5041385;28;20052;-76
2023/01/16 04:25:53;;;;;;;5.65;0.90;;;3.80;99.90;;;;;;5050569;28;20493;-76
2023/01/16 04:28:19;;;;;;;3.97;0.80;;;3.80;99.90;;;;;;5047382;28;20036;-75
2023/01/16 04:30:45;;;;;;;3.40;0.75;;;3.90;99.90;;;;;;5049765;28;20025;-76
2023/01/16 04:33:12;;;;;;;3.15;0.70;;;3.90;99.90;;;;;;5039627;28;20096;-75
2023/01/16 04:35:38;;;;;;;5.93;1.00;;;3.90;99.90;;;;;;5069269;28;20040;-76
2023/01/16 04:38:04;;;;;;;3.97;0.82;;;3.90;99.90;;;;;;5046622;28;20029;-74
2023/01/16 04:40:30;;;;;;;3.10;0.80;;;3.90;99.90;;;;;;5047052;28;20029;-75
2023/01/16 04:42:57;;;;;;;4.68;0.60;;;3.90;99.90;;;;;;5005722;28;20045;-75
2023/01/16 04:45:23;;;;;;;4.93;1.05;;;3.90;99.90;;;;;;5047144;28;20043;-75
2023/01/16 04:47:51;;;;;;;5.05;0.80;;;3.90;99.90;;;;;;5030455;28;20040;-75
2023/01/16 04:50:18;;;;;;;4.07;0.80;;;3.90;99.90;;;;;;5013899;28;20029;-74
2023/01/16 04:52:45;;;;;;;4.63;0.80;;;3.90;99.90;;;;;;5038786;28;20025;-75
2023/01/16 04:55:12;;;;;;;4.40;0.80;;;3.80;99.90;;;;;;5047980;28;20029;-75
2023/01/16 04:57:39;;;;;;;6.10;1.10;;;3.90;99.90;;;;;;5046062;28;20488;-75
2023/01/16 05:00:07;;;;;;;6.28;1.52;;;3.80;99.90;;;;;;5046530;28;20471;-75
2023/01/16 05:02:33;;;;;;;8.20;1.75;;;3.80;99.90;;;;;;5005972;28;20029;-75
2023/01/16 05:05:00;;;;;;;5.00;1.50;;;3.80;99.90;;;;;;5048725;28;20068;-75
2023/01/16 05:07:27;;;;;;;5.22;1.33;;;3.70;99.90;;;;;;5015951;28;20040;-75
2023/01/16 05:09:53;;;;;;;5.28;1.42;;;3.80;99.90;;;;;;5016025;28;20025;-75
2023/01/16 05:12:20;;;;;;;6.15;2.42;;;3.70;99.90;;;;;;5037702;28;20033;-75
2023/01/16 05:14:47;;;;;;;8.93;2.13;;;3.70;99.90;;;;;;5047117;28;20041;-75
2023/01/16 05:17:13;;;;;;;7.70;2.03;;;3.80;99.90;;;;;;5046297;28;20033;-75
2023/01/16 05:19:39;;;;;;;5.77;1.60;;;3.70;99.90;;;;;;5030013;28;20033;-75
2023/01/16 05:22:05;;;;;;;4.63;0.90;;;3.80;99.90;;;;;;5038099;28;20044;-75
2023/01/16 05:24:32;;;;;;;6.45;1.23;;;3.70;99.90;;;;;;5029867;28;20029;-76
2023/01/16 05:26:58;;;;;;;9.38;1.25;;;3.70;99.90;;;;;;5047774;28;20037;-75
2023/01/16 05:29:24;;;;;;;4.38;0.80;;;3.80;99.90;;;;;;5019634;28;20060;-75
2023/01/16 05:31:50;;;;;;;6.95;1.05;;;3.80;99.90;;;;;;5040466;28;20040;-75
2023/01/16 05:34:17;;;;;;;4.53;1.30;;;3.80;99.90;;;;;;5048634;28;20029;-76
2023/01/16 05:36:43;;;;;;;7.75;1.00;;;3.80;99.90;;;;;;5047589;28;20041;-76
2023/01/16 05:39:10;;;;;;;3.83;0.82;;;3.80;99.90;;;;;;5048529;28;20064;-76
2023/01/16 05:41:36;;;;;;;4.85;0.93;;;3.90;99.90;;;;;;5010327;28;20037;-75
2023/01/16 05:44:02;;;;;;;6.45;0.93;;;3.90;99.90;;;;;;5027805;28;20024;-75
2023/01/16 05:46:29;;;;;;;4.57;0.80;;;3.90;99.90;;;;;;5029210;28;20041;-76
2023/01/16 05:48:55;;;;;;;4.65;0.70;;;3.90;99.90;;;;;;5029568;28;20029;-77
2023/01/16 05:51:21;;;;;;;8.07;1.15;;;3.90;99.90;;;;;;5027562;28;20403;-76
2023/01/16 05:53:51;;;;;;;4.32;1.05;;;4.00;99.90;;;;;;5042737;28;20040;-78
2023/01/16 05:56:21;;;;;;;5.20;0.80;;;4.00;99.90;;;;;;5043702;28;20037;-77
2023/01/16 05:58:48;;;;;;;3.20;1.08;;;4.10;99.90;;;;;;5046656;28;20037;-75
2023/01/16 06:01:14;;;;;;;6.07;1.38;;;4.10;99.90;;;;;;5046470;28;20425;-75
2023/01/16 06:03:40;;;;;;;5.97;1.08;;;4.10;99.90;;;;;;5023157;28;20032;-77
2023/01/16 06:06:07;;;;;;;9.27;1.85;;;4.20;99.90;;;;;;5040826;28;20036;-78
2023/01/16 06:08:33;;;;;;;5.80;1.08;;;4.20;99.90;;;;;;5040842;28;20107;-77
2023/01/16 06:10:59;;;;;;;6.53;1.00;;;4.20;99.90;;;;;;5007609;28;20056;-77
2023/01/16 06:13:25;;;;;;;3.95;0.70;;;4.30;99.90;;;;;;5020662;28;20600;-77
2023/01/16 06:15:52;;;;;;;7.93;1.15;;;4.30;99.90;;;;;;5014793;28;20028;-76
2023/01/16 06:18:18;;;;;;;4.10;0.93;;;4.30;99.90;;;;;;5026496;28;20495;-76
2023/01/16 06:20:44;;;;;;;5.13;1.08;;;4.30;99.90;;;;;;5046574;28;20037;-76
2023/01/16 06:23:11;;;;;;;6.18;1.55;;;4.30;99.90;;;;;;5037007;28;20053;-76
2023/01/16 06:25:37;;;;;;;3.15;0.90;;;4.40;99.90;;;;;;5046447;28;20040;-76
2023/01/16 06:28:03;;;;;;;7.97;1.00;;;4.40;99.90;;;;;;5045152;28;20028;-77
2023/01/16 06:30:30;;;;;;;4.65;1.02;;;4.40;99.90;;;;;;5037824;28;20032;-77
2023/01/16 06:32:56;;;;;;;7.70;1.67;;;4.40;99.90;;;;;;5033541;28;20025;-76
2023/01/16 06:35:22;;;;;;;5.50;0.70;;;4.50;99.90;;;;;;5038564;28;20387;-77
2023/01/16 06:37:49;;;;;;;4.20;0.77;;;4.50;99.90;;;;;;5041900;28;20052;-77
2023/01/16 06:40:15;;;;;;;5.55;0.90;;;4.50;99.90;;;;;;5027223;28;20033;-77
2023/01/16 06:42:42;;;;;;;3.40;0.70;;;4.60;99.90;;;;;;5038342;28;20048;-76
2023/01/16 06:45:08;;;;;;;2.95;0.75;;;4.60;99.90;;;;;;5027612;28;20036;-77
2023/01/16 06:47:35;;;;;;;3.83;0.60;;;4.60;99.90;;;;;;5028036;28;20357;-77
2023/01/16 06:50:01;;;;;;;4.40;0.82;;;4.70;99.90;;;;;;5028276;28;20522;-76
2023/01/16 06:52:27;;;;;;;2.80;0.60;;;4.60;99.90;;;;;;5037832;28;20484;-77
2023/01/16 06:54:54;;;;;;;4.60;0.60;;;4.70;99.90;;;;;;5029255;28;20043;-76
2023/01/16 06:57:20;;;;;;;2.95;1.08;;;4.70;99.90;;;;;;5027345;28;20033;-77
2023/01/16 06:59:46;;;;;;;6.47;0.93;;;4.70;99.90;;;;;;5026083;28;20048;-76
2023/01/16 07:02:12;;;;;;;6.68;1.17;;;4.70;99.90;;;;;;5035107;28;20033;-76
2023/01/16 07:04:39;;;;;;;3.70;0.90;;;4.70;99.90;;;;;;5025540;28;20377;-79
2023/01/16 07:07:05;;;;;;;5.10;0.77;;;4.70;99.90;;;;;;5026141;28;20036;-77
2023/01/16 07:09:32;;;;;;;3.25;0.73;;;4.70;99.90;;;;;;5026535;28;20043;-78
2023/01/16 07:11:58;;;;;;;3.88;0.85;;;4.70;99.90;;;;;;5021841;28;20045;-77
2023/01/16 07:22:43;;;;;;;2.88;0.90;;;4.70;99.90;;;;;;5019244;28;20056;-79
2023/01/16 07:25:15;;;;;;;6.80;1.45;;;4.70;99.90;;;;;;5027553;28;20028;-80
2023/01/16 07:27:42;;;;;;;6.30;1.23;;;4.60;99.90;;;;;;5044779;28;20910;-78
2023/01/16 07:30:10;;;;;;;4.95;1.40;;;4.60;99.90;;;;;;5027877;28;20037;-79
2023/01/16 07:32:37;;;;;;;6.75;1.73;;;4.70;99.90;;;;;;5007311;28;20037;-78
2023/01/16 07:35:04;;;;;;;5.90;1.90;;;4.60;99.90;;;;;;5046084;28;20032;-80
2023/01/16 07:37:30;;;;;;;5.28;1.73;;;4.60;99.90;;;;;;5045855;28;20250;-80
2023/01/16 07:39:56;;;;;;;5.55;2.33;;;4.60;99.90;;;;;;5044544;28;20045;-81
2023/01/16 07:42:22;;;;;;;7.80;2.17;;;4.60;99.90;;;;;;5018940;28;20605;-78
2023/01/16 07:44:49;;;;;;;4.55;1.90;;;4.60;99.90;;;;;;5045213;28;20029;-79
2023/01/16 07:47:15;;;;;;;6.40;2.08;;;4.60;99.90;;;;;;5042266;28;20044;-80
2023/01/16 07:49:41;;;;;;;8.50;1.73;;;4.60;99.90;;;;;;5027474;28;20045;-84
2023/01/16 07:52:07;;;;;;;4.25;1.52;;;4.60;99.90;;;;;;5036403;28;20044;-79
2023/01/16 07:54:36;;;;;;;4.32;1.30;;;4.60;99.90;;;;;;5043153;28;20037;-82
2023/01/16 07:57:02;;;;;;;3.42;1.30;;;4.60;99.90;;;;;;5029660;28;20530;-79
2023/01/16 07:59:28;;;;;;;5.15;1.60;;;4.60;99.90;;;;;;5027339;28;20499;-81
2023/01/16 08:01:55;;;;;;;6.05;1.23;;;4.60;99.90;;;;;;5038120;28;20037;-80
2023/01/16 08:04:21;;;;;;;4.57;1.40;;;4.60;99.90;;;;;;5042970;28;20033;-80
2023/01/16 08:06:47;;;;;;;5.95;1.33;;;4.60;99.90;;;;;;5043559;28;20041;-80
2023/01/16 08:09:13;;;;;;;6.95;1.67;;;4.60;99.90;;;;;;5027277;28;20048;-82
2023/01/16 08:11:40;;;;;;;4.82;1.27;;;4.60;99.90;;;;;;5037506;28;20037;-83
2023/01/16 08:14:07;;;;;;;6.95;1.40;;;4.50;99.90;;;;;;5041002;28;20033;-81
2023/01/16 08:16:34;;;;;;;5.72;1.38;;;4.50;99.90;;;;;;5030191;28;20036;-82
2023/01/16 08:19:00;;;;;;;4.13;1.20;;;4.50;99.90;;;;;;5042439;28;20037;-83
2023/01/16 08:21:26;;;;;;;6.57;1.23;;;4.50;99.90;;;;;;5025589;28;20040;-83
2023/01/16 08:23:53;;;;;;;6.03;2.03;;;4.50;99.90;;;;;;5021919;28;20842;-79
2023/01/16 08:26:19;;;;;;;9.88;1.40;;;4.50;99.90;;;;;;5043976;28;20028;-84
2023/01/16 08:28:45;;;;;;;5.15;1.40;;;4.60;99.90;;;;;;5043959;28;20025;-82
2023/01/16 08:31:13;;;;;;;5.80;1.13;;;4.60;99.90;;;;;;5040246;28;20040;-84
2023/01/16 08:33:41;;;;;;;5.05;1.40;;;4.60;99.90;;;;;;5038903;28;20368;-82
2023/01/16 08:36:10;;;;;;;5.30;1.17;;;4.60;99.90;;;;;;5047682;28;20035;-82
2023/01/16 08:38:37;;;;;;;6.63;0.63;;;4.60;99.90;;;;;;5047057;28;20044;-83
2023/01/16 08:41:04;;;;;;;4.30;0.90;;;4.50;99.90;;;;;;5045358;28;20065;-78
2023/01/16 08:51:58;;;;;;;4.07;0.90;;;4.60;99.90;;;;;;5040610;28;20044;-81
2023/01/16 08:54:25;;;;;;;6.68;1.40;;;4.60;99.90;;;;;;5028623;28;20037;-79
2023/01/16 08:56:52;;;;;;;3.92;1.10;;;4.60;99.90;;;;;;5030023;28;20037;-77
2023/01/16 08:59:18;;;;;;;5.43;1.15;;;4.70;99.90;;;;;;5047578;28;20798;-78
2023/01/16 09:01:44;;;;;;;7.53;1.35;;;4.70;99.90;;;;;;5040941;28;20037;-79
2023/01/16 09:04:10;;;;;;;7.35;1.08;;;4.70;99.90;;;;;;5043807;28;20037;-78
2023/01/16 09:06:37;;;;;;;5.93;1.20;;;4.70;99.90;;;;;;5011182;28;20024;-79
2023/01/16 09:09:05;;;;;;;5.40;1.08;;;4.70;99.90;;;;;;5031642;28;20047;-79
2023/01/16 09:14:20;;;;;;;8.25;1.98;;;4.70;99.90;;;;;;5044681;28;20041;-77
2023/01/16 09:16:47;;;;;;;4.80;1.65;;;4.80;99.90;;;;;;5046524;28;20044;-78
2023/01/16 09:19:13;;;;;;;4.78;1.27;;;4.80;99.90;;;;;;5013998;28;20033;-78
2023/01/16 09:21:39;;;;;;;3.97;1.42;;;4.80;99.90;;;;;;5040451;28;20051;-77
2023/01/16 09:24:07;;;;;;;4.53;1.52;;;4.80;99.90;;;;;;5044073;28;20057;-78
2023/01/16 09:26:33;;;;;;;4.80;1.50;;;4.80;99.90;;;;;;5029808;28;20746;-77
2023/01/16 09:28:59;;;;;;;4.68;1.70;;;4.80;99.90;;;;;;5026904;28;20029;-80
2023/01/16 09:31:26;;;;;;;5.47;2.00;;;4.80;99.90;;;;;;5011147;28;20029;-77
2023/01/16 09:33:54;;;;;;;4.47;1.67;;;4.90;99.90;;;;;;5042174;28;20858;-79
2023/01/16 09:36:21;;;;;;;4.60;1.70;;;4.90;99.90;;;;;;5031417;28;20949;-78
2023/01/16 09:38:47;;;;;;;7.57;1.60;;;4.90;99.90;;;;;;5041600;28;20028;-80
2023/01/16 09:43:35;;;;;;;4.90;1.80;;;4.90;99.90;;;;;;5008276;28;20044;-80
2023/01/16 09:44:07;;;;;;;4.90;2.63;;;4.90;99.90;;;;;;5043794;28;20033;-79
2023/01/16 09:46:40;;;;;;;6.72;2.85;;;4.90;99.90;;;;;;5044190;28;20492;-79
2023/01/16 09:49:13;;;;;;;8.40;2.17;;;4.90;99.90;;;;;;5030999;28;20044;-79
2023/01/16 09:58:34;;;;;;;7.28;2.47;;;4.90;99.90;;;;;;5041607;28;20033;-80
2023/01/16 10:00:08;;;;;;;6.72;2.45;;;4.90;99.90;;;;;;5045427;28;20044;-79
2023/01/16 10:02:36;;;;;;;3.63;1.83;;;4.90;99.90;;;;;;5036832;28;20037;-78
2023/01/16 10:05:04;;;;;;;5.68;2.00;;;4.90;99.90;;;;;;5028632;28;20025;-79
2023/01/16 10:07:59;;;;;;;5.55;2.45;;;4.90;99.90;;;;;;5023975;28;20029;-78
2023/01/16 10:10:49;;;;;;;5.38;1.58;;;5.00;99.90;;;;;;5026579;28;20040;-79
2023/01/16 10:13:51;;;;;;;3.08;1.85;;;4.90;99.90;;;;;;5036852;28;20032;-77
2023/01/16 10:16:43;;;;;;;3.70;1.58;;;4.90;99.90;;;;;;5043250;28;20033;-78
2023/01/16 10:19:23;;;;;;;5.28;1.85;;;4.90;99.90;;;;;;5025929;28;20348;-78
2023/01/16 10:22:09;;;;;;;6.28;1.75;;;4.90;99.90;;;;;;5020387;28;20107;-78
2023/01/16 10:24:49;;;;;;;5.57;2.42;;;4.90;99.90;;;;;;5042858;28;20033;-79
2023/01/16 10:27:37;;;;;;;4.25;2.30;;;4.90;99.90;;;;;;5025431;28;20507;-77
2023/01/16 10:30:18;;;;;;;4.03;1.92;;;4.90;99.90;;;;;;5044438;28;20037;-77
2023/01/16 10:32:52;;;;;;;4.22;1.17;;;4.90;99.90;;;;;;5037361;28;20029;-79
2023/01/16 10:35:26;;;;;;;4.53;1.40;;;4.90;99.90;;;;;;5045400;28;20124;-78
2023/01/16 10:37:54;;;;;;;4.40;1.33;;;4.90;99.90;;;;;;5044040;28;20033;-78
2023/01/16 10:40:27;;;;;;;2.30;1.42;;;4.90;99.90;;;;;;5027364;28;20044;-79
2023/01/16 10:51:18;;;;;;;5.55;1.80;;;4.90;99.90;;;;;;5040159;28;20040;-80
2023/01/16 10:53:44;;;;;;;3.90;1.30;;;5.00;99.90;;;;;;5021667;28;20048;-80
2023/01/16 10:56:11;;;;;;;3.75;1.55;;;5.00;99.90;;;;;;5026844;28;20048;-80
2023/01/16 10:58:39;;;;;;;2.72;1.38;;;5.00;99.90;;;;;;5043415;28;20040;-79
2023/01/16 11:01:11;;;;;;;2.83;1.42;;;5.00;99.90;;;;;;5023298;28;20048;-79
2023/01/16 11:03:47;;;;;;;3.92;1.17;;;5.00;99.90;;;;;;5024342;28;20048;-80
2023/01/16 11:06:18;;;;;;;2.13;1.33;;;5.00;99.90;;;;;;5027194;28;20037;-79
2023/01/16 11:08:48;;;;;;;6.82;2.20;;;5.00;99.90;;;;;;5041652;28;20029;-80
2023/01/16 11:19:45;;;;;;;3.75;1.10;;;5.00;99.90;;;;;;5024618;28;20025;-79
2023/01/16 11:22:25;;;;;;;6.05;1.20;;;5.10;99.90;;;;;;5033970;28;20262;-79
2023/01/16 11:24:58;;;;;;;3.22;1.00;;;5.10;99.90;;;;;;5019770;28;20037;-76
2023/01/16 11:27:30;;;;;;;5.35;1.30;;;5.10;99.90;;;;;;5012504;28;20032;-80
2023/01/16 11:29:57;;;;;;;1.83;0.65;;;5.10;99.90;;;;;;5027152;28;20539;-79
2023/01/16 11:32:27;;;;;;;2.50;0.80;;;5.10;99.90;;;;;;5035748;28;20041;-79
2023/01/16 11:34:57;;;;;;;1.95;0.70;;;5.10;99.90;;;;;;5050448;28;20036;-78
2023/01/16 11:37:26;;;;;;;3.55;0.80;;;5.20;99.90;;;;;;5010726;28;20029;-79
2023/01/16 11:39:54;;;;;;;2.17;0.70;;;5.30;99.90;;;;;;5042478;28;20048;-79
2023/01/16 11:48:24;;;;;;;2.38;1.05;;;5.80;99.90;;;;;;5026672;28;20403;-79
2023/01/16 11:51:01;;;;;;;;;;;5.90;99.90;;;;;;5049115;28;20036;-76
2023/01/16 11:53:35;;;;;;;5.25;0.95;;;6.00;99.90;;;;;;5023830;28;19909;-79
2023/01/16 11:56:10;;;;;;;4.20;1.10;;;6.00;99.90;;;;;;5027192;28;20045;-79
2023/01/16 11:59:06;;;;;;;2.45;1.10;;;5.90;99.90;;;;;;5042748;28;20044;-79
2023/01/16 12:05:53;;;;;;;3.13;0.90;;;5.80;99.90;;;;;;5042992;28;20036;-79
2023/01/16 12:07:54;;;;;;;2.10;0.80;;;5.70;99.90;;;;;;5044414;28;20029;-79
2023/01/16 12:10:41;;;;;;;3.00;1.05;;;5.70;99.90;;;;;;5047035;28;20048;-79
2023/01/16 12:16:21;;;;;;;3.70;1.02;;;5.80;99.90;;;;;;5047379;28;20033;-77
2023/01/16 12:19:15;;;;;;;1.90;0.90;;;5.80;99.90;;;;;;5029485;28;20033;-78
2023/01/16 12:21:56;;;;;;;2.30;0.93;;;5.90;99.90;;;;;;5023704;28;20043;-77
2023/01/16 12:24:43;;;;;;;1.95;0.90;;;5.90;99.90;;;;;;5046297;28;20048;-78
2023/01/16 12:27:12;;;;;;;1.63;0.70;;;5.90;99.90;;;;;;5032307;28;20051;-78
2023/01/16 12:29:57;;;;;;;3.38;0.90;;;5.90;99.90;;;;;;5029694;28;20134;-78
2023/01/16 12:32:34;;;;;;;4.60;1.70;;;6.00;99.90;;;;;;5026450;28;20041;-79
2023/01/16 12:35:31;;;;;;;8.90;4.97;;;6.00;99.90;;;;;;5014564;28;20045;-77
2023/01/16 12:38:17;;;;;;;13.80;8.95;;;6.00;99.90;;;;;;5045066;28;20045;-76
2023/01/16 12:44:18;;;;;;;5.40;3.33;;;5.90;99.90;;;;;;5025218;28;20029;-75
2023/01/16 12:47:03;;;;;;;4.47;2.50;;;6.00;99.90;;;;;;5047235;28;20496;-76
2023/01/16 12:49:42;;;;;;;5.22;2.05;;;5.90;99.90;;;;;;5031923;28;20511;-76
2023/01/16 12:52:41;;;;;;;2.85;1.48;;;5.90;99.90;;;;;;5038194;28;20492;-76
2023/01/16 12:55:34;;;;;;;2.30;1.17;;;6.00;99.90;;;;;;5048698;28;20044;-77
2023/01/16 12:58:12;;;;;;;;;;;6.00;99.90;;;;;;5032275;28;20028;-77
2023/01/16 13:00:53;;;;;;;2.53;0.80;;;6.00;99.90;;;;;;5047158;28;19924;-77
2023/01/16 13:03:48;;;;;;;2.78;1.30;;;6.00;99.90;;;;;;5040952;28;20604;-77
2023/01/16 13:06:22;;;;;;;2.72;0.90;;;6.00;99.90;;;;;;5045451;28;20059;-77
2023/01/16 13:09:05;;;;;;;2.00;0.90;;;6.00;99.90;;;;;;5046616;28;20044;-78
2023/01/16 13:14:31;;;;;;;2.15;0.70;;;6.10;99.90;;;;;;5030284;28;20021;-78
2023/01/16 13:17:04;;;;;;;2.47;0.73;;;6.10;99.90;;;;;;5047102;28;20048;-78
2023/01/16 13:19:37;;;;;;;1.10;0.80;;;6.10;99.90;;;;;;5046840;28;20044;-76
2023/01/16 13:22:10;;;;;;;1.23;0.63;;;6.10;99.90;;;;;;5039382;28;20068;-75
2023/01/16 13:24:45;;;;;;;2.08;0.80;;;6.10;99.90;;;;;;5045100;28;20040;-77
2023/01/16 13:27:16;;;;;;;1.90;0.57;;;6.10;99.90;;;;;;5012057;28;20037;-78
2023/01/16 13:29:54;;;;;;;1.70;1.02;;;6.00;99.90;;;;;;5045363;28;20029;-78
2023/01/16 13:32:44;;;;;;;1.90;0.80;;;6.00;99.90;;;;;;5036953;28;20428;-79
2023/01/16 13:35:37;;;;;;;2.25;0.80;;;6.00;99.90;;;;;;5047286;28;20036;-79
2023/01/16 13:38:27;;;;;;;1.40;0.80;;;6.00;99.90;;;;;;5045846;28;20440;-78
2023/01/16 13:41:12;;;;;;;1.58;0.98;;;6.00;99.90;;;;;;5026343;28;20662;-77
2023/01/16 13:46:53;;;;;;;3.15;0.90;;;5.90;99.90;;;;;;5033802;28;20045;-78
2023/01/16 13:49:24;;;;;;;3.08;0.85;;;5.90;99.90;;;;;;5046717;28;20048;-78
2023/01/16 13:51:52;;;;;;;1.10;0.50;;;5.90;99.90;;;;;;5026695;28;20564;-78
2023/01/16 13:54:23;;;;;;;1.20;0.65;;;5.90;99.90;;;;;;5044937;28;20515;-79
2023/01/16 13:57:00;;;;;;;2.65;0.60;;;5.90;99.90;;;;;;5028581;28;20416;-77
2023/01/16 13:59:45;;;;;;;1.92;0.50;;;5.90;99.90;;;;;;5028027;28;20075;-78
2023/01/16 14:02:26;;;;;;;0.85;0.52;;;5.90;99.90;;;;;;5039042;28;20033;-76
2023/01/16 14:05:08;;;;;;;1.73;0.50;;;6.00;99.90;;;;;;5045331;28;20534;-78
2023/01/16 14:10:45;;;;;;;3.85;0.57;;;5.90;99.90;;;;;;5045330;28;20045;-77
2023/01/16 14:13:23;;;;;;;3.78;0.63;;;5.90;99.90;;;;;;5038712;28;20033;-77
2023/01/16 14:18:47;;;;;;;1.33;0.50;;;5.80;99.90;;;;;;5029684;28;20044;-78
2023/01/16 14:21:22;;;;;;;3.10;1.00;;;5.80;99.90;;;;;;5043435;28;20037;-78
2023/01/16 14:24:02;;;;;;;2.45;0.90;;;5.70;99.90;;;;;;5026313;28;20045;-78
2023/01/16 14:26:47;;;;;;;1.50;0.70;;;5.70;99.90;;;;;;5029883;28;20038;-77
2023/01/16 14:29:17;;;;;;;2.38;0.80;;;5.60;99.90;;;;;;5027716;28;20033;-78
2023/01/16 14:31:55;;;;;;;1.23;0.80;;;5.60;99.90;;;;;;5037423;28;20052;-78
2023/01/16 14:34:26;;;;;;;2.17;0.90;;;5.60;99.90;;;;;;5044207;28;20041;-78
2023/01/16 14:37:01;;;;;;;3.80;0.90;;;5.60;99.90;;;;;;5028168;28;20539;-76